createdAt,value
2023-04-16T00:00:12.141Z,13.98
2023-04-16T00:00:46.559Z,12.73
2023-04-16T00:01:18.967Z,14.05
2023-04-16T00:01:51.338Z,14.50
2023-04-16T00:02:24.678Z,13.80
2023-04-16T00:02:57.342Z,13.98
2023-04-16T00:03:29.984Z,13.77
2023-04-16T00:04:02.672Z,14.63
2023-04-16T00:04:35.415Z,13.63
2023-04-16T00:05:08.104Z,13.57
2023-04-16T00:05:40.626Z,13.73
2023-04-16T00:06:12.960Z,12.95
2023-04-16T00:06:45.288Z,12.50
2023-04-16T00:07:17.525Z,12.55
2023-04-16T00:07:51.747Z,12.73
2023-04-16T00:08:26.670Z,12.25
2023-04-16T00:08:59.196Z,12.80
2023-04-16T00:09:31.522Z,13.30
2023-04-16T00:10:04.093Z,12.90
2023-04-16T00:10:36.425Z,12.32
2023-04-16T00:11:08.770Z,13.25
2023-04-16T00:11:41.088Z,12.48
2023-04-16T00:12:13.395Z,13.15
2023-04-16T00:12:45.808Z,12.10
2023-04-16T00:13:18.135Z,12.20
2023-04-16T00:13:50.529Z,12.15
2023-04-16T00:14:22.792Z,13.45
2023-04-16T00:14:55.064Z,12.65
2023-04-16T00:15:27.406Z,12.75
2023-04-16T00:15:59.693Z,11.98
2023-04-16T00:16:32.185Z,11.80
2023-04-16T00:17:04.622Z,12.00
2023-04-16T00:17:36.965Z,12.80
2023-04-16T00:18:09.258Z,12.13
2023-04-16T00:18:41.604Z,12.13
2023-04-16T00:19:13.933Z,12.45
2023-04-16T00:19:46.183Z,11.80
2023-04-16T00:20:20.301Z,11.50
2023-04-16T00:20:53.653Z,10.57
2023-04-16T00:21:27.142Z,10.57
2023-04-16T00:21:59.491Z,10.48
2023-04-16T00:22:31.813Z,10.48
2023-04-16T00:23:04.140Z,9.77
2023-04-16T00:23:36.495Z,9.73
2023-04-16T00:24:08.822Z,9.83
2023-04-16T00:24:41.710Z,9.35
2023-04-16T00:25:14.409Z,9.52
2023-04-16T00:25:46.708Z,8.98
2023-04-16T00:26:18.977Z,8.60
2023-04-16T00:26:52.075Z,9.10
2023-04-16T00:27:24.501Z,9.38
2023-04-16T00:27:56.810Z,8.77
2023-04-16T00:28:29.259Z,9.07
2023-04-16T00:29:01.840Z,9.00
2023-04-16T00:29:35.037Z,8.80
2023-04-16T00:30:07.713Z,8.95
2023-04-16T00:30:40.252Z,9.27
2023-04-16T00:31:12.653Z,9.13
2023-04-16T00:31:44.953Z,9.20
2023-04-16T00:32:17.324Z,8.98
2023-04-16T00:32:49.744Z,9.45
2023-04-16T00:33:24.302Z,9.35
2023-04-16T00:33:56.826Z,8.95
2023-04-16T00:34:29.124Z,8.85
2023-04-16T00:35:01.466Z,9.30
2023-04-16T00:35:33.853Z,8.70
2023-04-16T00:36:06.231Z,9.05
2023-04-16T00:36:38.564Z,9.45
2023-04-16T00:37:10.974Z,9.30
2023-04-16T00:37:43.236Z,9.88
2023-04-16T00:38:15.969Z,10.02
2023-04-16T00:38:48.349Z,10.68
2023-04-16T00:39:20.664Z,9.45
2023-04-16T00:39:52.928Z,9.43
2023-04-16T00:40:27.615Z,9.43
2023-04-16T00:40:59.932Z,8.98
2023-04-16T00:41:32.392Z,8.50
2023-04-16T00:42:04.680Z,8.80
2023-04-16T00:42:38.273Z,9.00
2023-04-16T00:43:10.679Z,8.20
2023-04-16T00:43:43.834Z,8.48
2023-04-16T00:44:16.182Z,8.75
2023-04-16T00:44:48.625Z,8.80
2023-04-16T00:45:21.156Z,8.30
2023-04-16T00:45:54.290Z,8.23
2023-04-16T00:46:26.804Z,8.10
2023-04-16T00:46:59.232Z,7.95
2023-04-16T00:47:31.955Z,8.45
2023-04-16T00:48:04.765Z,8.63
2023-04-16T00:48:38.092Z,7.93
2023-04-16T00:49:11.158Z,8.00
2023-04-16T00:49:43.558Z,6.68
2023-04-16T00:50:15.992Z,7.10
2023-04-16T00:50:48.656Z,6.25
2023-04-16T00:51:21.757Z,6.43
2023-04-16T00:51:54.246Z,6.22
2023-04-16T00:52:26.829Z,6.38
2023-04-16T00:52:59.226Z,5.78
2023-04-16T00:53:32.001Z,6.00
2023-04-16T00:54:06.524Z,5.70
2023-04-16T00:54:39.494Z,5.90
2023-04-16T00:55:13.578Z,5.75
2023-04-16T00:55:46.141Z,6.07
2023-04-16T00:56:20.481Z,6.25
2023-04-16T00:56:54.087Z,6.63
2023-04-16T00:57:27.244Z,6.15
2023-04-16T00:57:59.494Z,6.30
2023-04-16T00:58:32.349Z,6.72
2023-04-16T00:59:04.689Z,6.60
2023-04-16T00:59:37.083Z,6.13
2023-04-16T01:00:10.188Z,5.95
2023-04-16T01:00:42.466Z,5.57
2023-04-16T01:01:14.790Z,4.80
2023-04-16T01:01:47.098Z,5.10
2023-04-16T01:02:19.733Z,5.53
2023-04-16T01:02:52.527Z,5.07
2023-04-16T01:03:29.974Z,4.75
2023-04-16T01:04:02.711Z,5.18
2023-04-16T01:04:36.466Z,5.32
2023-04-16T01:05:09.636Z,5.32
2023-04-16T01:05:42.402Z,4.60
2023-04-16T01:06:16.756Z,4.88
2023-04-16T01:06:49.314Z,5.10
2023-04-16T01:07:21.642Z,5.50
2023-04-16T01:07:54.441Z,5.30
2023-04-16T01:08:26.751Z,4.93
2023-04-16T01:08:59.048Z,5.15
2023-04-16T01:09:31.555Z,5.30
2023-04-16T01:10:04.283Z,4.90
2023-04-16T01:10:36.682Z,5.35
2023-04-16T01:11:09.904Z,6.35
2023-04-16T01:11:42.186Z,6.00
2023-04-16T01:12:14.640Z,6.32
2023-04-16T01:12:46.896Z,6.07
2023-04-16T01:13:19.236Z,6.27
2023-04-16T01:13:51.566Z,6.07
2023-04-16T01:14:24.416Z,5.85
2023-04-16T01:14:57.026Z,6.10
2023-04-16T01:15:29.677Z,6.45
2023-04-16T01:16:02.257Z,6.70
2023-04-16T01:16:34.628Z,6.38
2023-04-16T01:17:06.978Z,6.20
2023-04-16T01:17:39.299Z,5.90
2023-04-16T01:18:21.564Z,6.25
2023-04-16T01:18:53.974Z,6.10
2023-04-16T01:19:26.264Z,6.30
2023-04-16T01:20:00.343Z,6.50
2023-04-16T01:20:35.338Z,6.10
2023-04-16T01:21:07.849Z,6.00
2023-04-16T01:21:40.153Z,5.53
2023-04-16T01:22:12.557Z,5.55
2023-04-16T01:22:44.818Z,5.38
2023-04-16T01:23:18.765Z,6.40
2023-04-16T01:23:51.179Z,4.90
2023-04-16T01:24:23.460Z,5.90
2023-04-16T01:24:55.816Z,5.95
2023-04-16T01:25:29.041Z,5.47
2023-04-16T01:26:01.541Z,5.68
2023-04-16T01:26:33.956Z,5.55
2023-04-16T01:27:06.490Z,5.50
2023-04-16T01:27:38.789Z,5.80
2023-04-16T01:28:11.636Z,5.18
2023-04-16T01:28:44.240Z,5.70
2023-04-16T01:29:16.523Z,5.90
2023-04-16T01:29:48.848Z,6.03
2023-04-16T01:30:27.017Z,5.82
2023-04-16T01:31:09.443Z,5.63
2023-04-16T01:32:05.835Z,6.07
2023-04-16T01:32:41.639Z,5.88
2023-04-16T01:33:14.572Z,6.40
2023-04-16T01:33:46.876Z,6.75
2023-04-16T01:34:19.183Z,6.18
2023-04-16T01:34:51.485Z,6.13
2023-04-16T01:35:24.202Z,6.10
2023-04-16T01:35:56.522Z,6.23
2023-04-16T01:36:28.879Z,6.45
2023-04-16T01:37:01.208Z,6.32
2023-04-16T01:37:33.779Z,6.13
2023-04-16T01:38:07.018Z,6.60
2023-04-16T01:38:39.318Z,6.68
2023-04-16T01:39:14.473Z,6.57
2023-04-16T01:39:46.808Z,6.32
2023-04-16T01:40:19.355Z,7.00
2023-04-16T01:40:55.966Z,6.40
2023-04-16T01:41:28.336Z,6.53
2023-04-16T01:42:01.025Z,6.20
2023-04-16T01:42:33.289Z,6.38
2023-04-16T01:43:05.630Z,6.60
2023-04-16T01:43:40.030Z,6.22
2023-04-16T01:44:12.734Z,6.40
2023-04-16T01:44:47.170Z,5.95
2023-04-16T01:45:19.565Z,5.90
2023-04-16T01:45:52.824Z,6.40
2023-04-16T01:46:27.723Z,6.43
2023-04-16T01:47:00.384Z,6.20
2023-04-16T01:47:32.920Z,6.10
2023-04-16T01:48:05.588Z,6.47
2023-04-16T01:48:37.978Z,6.82
2023-04-16T01:49:10.967Z,6.53
2023-04-16T01:49:45.936Z,6.60
2023-04-16T01:50:18.850Z,6.47
2023-04-16T01:50:51.201Z,7.15
2023-04-16T01:51:24.240Z,7.20
2023-04-16T01:51:56.486Z,7.13
2023-04-16T01:52:28.825Z,6.70
2023-04-16T01:53:05.486Z,6.80
2023-04-16T01:53:37.913Z,7.32
2023-04-16T01:54:10.424Z,6.85
2023-04-16T01:54:42.917Z,6.93
2023-04-16T01:55:15.987Z,6.78
2023-04-16T01:55:48.446Z,6.80
2023-04-16T01:56:20.871Z,7.38
2023-04-16T01:56:53.173Z,7.38
2023-04-16T01:57:25.585Z,7.60
2023-04-16T01:57:58.638Z,6.87
2023-04-16T01:58:34.680Z,7.25
2023-04-16T01:59:07.182Z,7.38
2023-04-16T01:59:44.843Z,7.70
2023-04-16T02:00:17.253Z,8.10
2023-04-16T02:00:52.432Z,7.40
2023-04-16T02:01:25.053Z,7.57
2023-04-16T02:01:58.496Z,7.22
2023-04-16T02:02:30.951Z,7.70
2023-04-16T02:03:03.564Z,7.57
2023-04-16T02:03:36.317Z,7.13
2023-04-16T02:04:10.558Z,6.80
2023-04-16T02:04:45.247Z,6.82
2023-04-16T02:05:17.593Z,7.43
2023-04-16T02:05:51.553Z,7.32
2023-04-16T02:06:23.977Z,6.97
2023-04-16T02:06:56.623Z,7.40
2023-04-16T02:07:28.980Z,7.07
2023-04-16T02:08:01.796Z,7.35
2023-04-16T02:08:35.827Z,7.40
2023-04-16T02:09:08.274Z,7.13
2023-04-16T02:09:42.490Z,7.85
2023-04-16T02:10:14.803Z,7.50
2023-04-16T02:10:47.741Z,8.20
2023-04-16T02:11:20.111Z,7.60
2023-04-16T02:11:52.683Z,8.55
2023-04-16T02:12:25.556Z,8.18
2023-04-16T02:12:57.855Z,7.95
2023-04-16T02:13:30.140Z,8.15
2023-04-16T02:14:02.442Z,7.85
2023-04-16T02:14:34.761Z,8.93
2023-04-16T02:15:07.982Z,8.20
2023-04-16T02:15:40.996Z,8.57
2023-04-16T02:16:13.532Z,8.77
2023-04-16T02:16:51.046Z,8.88
2023-04-16T02:17:38.606Z,8.20
2023-04-16T02:18:15.864Z,8.18
2023-04-16T02:18:48.111Z,8.70
2023-04-16T02:19:22.213Z,7.95
2023-04-16T02:19:54.560Z,7.68
2023-04-16T02:20:26.895Z,7.90
2023-04-16T02:21:04.115Z,7.13
2023-04-16T02:21:36.637Z,6.80
2023-04-16T02:22:08.959Z,6.68
2023-04-16T02:22:41.422Z,7.45
2023-04-16T02:23:15.635Z,6.65
2023-04-16T02:23:51.810Z,6.35
2023-04-16T02:24:29.132Z,6.18
2023-04-16T02:25:02.806Z,6.47
2023-04-16T02:25:40.886Z,5.75
2023-04-16T02:26:14.794Z,5.93
2023-04-16T02:26:47.764Z,5.70
2023-04-16T02:27:22.767Z,6.25
2023-04-16T02:27:59.943Z,6.00
2023-04-16T02:28:40.958Z,5.75
2023-04-16T02:29:16.689Z,5.68
2023-04-16T02:29:54.334Z,6.00
2023-04-16T02:30:26.916Z,5.88
2023-04-16T02:30:59.933Z,5.20
2023-04-16T02:31:37.415Z,5.90
2023-04-16T02:32:10.392Z,5.70
2023-04-16T02:32:43.099Z,5.68
2023-04-16T02:33:16.101Z,5.93
2023-04-16T02:33:58.932Z,6.75
2023-04-16T02:34:31.447Z,6.15
2023-04-16T02:35:04.293Z,6.03
2023-04-16T02:35:36.811Z,6.28
2023-04-16T02:36:11.481Z,6.53
2023-04-16T02:36:43.984Z,6.82
2023-04-16T02:37:16.344Z,6.35
2023-04-16T02:37:49.064Z,6.87
2023-04-16T02:38:21.685Z,6.53
2023-04-16T02:38:54.115Z,6.68
2023-04-16T02:39:26.607Z,7.00
2023-04-16T02:39:59.344Z,6.28
2023-04-16T02:40:31.978Z,6.57
2023-04-16T02:41:05.161Z,6.22
2023-04-16T02:41:39.297Z,6.63
2023-04-16T02:42:11.571Z,6.53
2023-04-16T02:42:43.915Z,6.60
2023-04-16T02:43:16.191Z,7.13
2023-04-16T02:43:48.511Z,6.55
2023-04-16T02:44:20.781Z,6.80
2023-04-16T02:44:53.508Z,6.47
2023-04-16T02:45:25.848Z,6.63
2023-04-16T02:45:59.877Z,6.57
2023-04-16T02:46:32.170Z,6.63
2023-04-16T02:47:04.572Z,6.35
2023-04-16T02:47:36.866Z,6.57
2023-04-16T02:48:09.885Z,6.50
2023-04-16T02:48:42.365Z,6.67
2023-04-16T02:49:14.876Z,6.57
2023-04-16T02:49:47.179Z,6.70
2023-04-16T02:50:19.553Z,6.47
2023-04-16T02:50:51.911Z,6.35
2023-04-16T02:51:24.206Z,6.53
2023-04-16T02:51:56.572Z,6.90
2023-04-16T02:52:28.969Z,6.68
2023-04-16T02:53:01.231Z,6.95
2023-04-16T02:53:33.586Z,6.70
2023-04-16T02:54:06.052Z,6.83
2023-04-16T02:54:38.587Z,7.00
2023-04-16T02:55:11.419Z,6.75
2023-04-16T02:55:49.570Z,7.05
2023-04-16T02:56:22.005Z,6.38
2023-04-16T02:56:54.251Z,6.50
2023-04-16T02:57:26.640Z,6.70
2023-04-16T02:57:58.984Z,6.25
2023-04-16T02:58:31.256Z,6.57
2023-04-16T02:59:03.620Z,6.20
2023-04-16T02:59:36.035Z,6.47
2023-04-16T03:00:08.870Z,5.90
2023-04-16T03:00:41.116Z,6.40
2023-04-16T03:01:13.468Z,6.65
2023-04-16T03:01:45.988Z,6.32
2023-04-16T03:02:18.598Z,6.40
2023-04-16T03:02:51.460Z,6.00
2023-04-16T03:03:24.273Z,6.57
2023-04-16T03:03:56.867Z,6.45
2023-04-16T03:04:29.379Z,6.38
2023-04-16T03:05:02.032Z,6.80
2023-04-16T03:05:34.335Z,6.50
2023-04-16T03:06:07.055Z,6.07
2023-04-16T03:06:39.507Z,6.97
2023-04-16T03:07:13.916Z,6.70
2023-04-16T03:07:46.277Z,6.47
2023-04-16T03:08:18.546Z,7.10
2023-04-16T03:08:50.916Z,6.60
2023-04-16T03:09:23.186Z,6.60
2023-04-16T03:09:55.729Z,6.78
2023-04-16T03:10:28.432Z,6.77
2023-04-16T03:11:01.032Z,6.82
2023-04-16T03:11:33.675Z,7.00
2023-04-16T03:12:06.115Z,7.10
2023-04-16T03:12:39.381Z,6.75
2023-04-16T03:13:12.433Z,6.70
2023-04-16T03:13:44.690Z,7.18
2023-04-16T03:14:16.998Z,7.15
2023-04-16T03:14:50.972Z,7.20
2023-04-16T03:15:23.343Z,6.93
2023-04-16T03:15:55.903Z,6.97
2023-04-16T03:16:28.232Z,6.90
2023-04-16T03:17:00.809Z,7.05
2023-04-16T03:17:33.458Z,6.90
2023-04-16T03:18:06.104Z,7.18
2023-04-16T03:18:38.578Z,6.82
2023-04-16T03:19:11.052Z,7.38
2023-04-16T03:19:43.430Z,6.93
2023-04-16T03:20:17.451Z,6.53
2023-04-16T03:20:52.831Z,6.80
2023-04-16T03:21:25.238Z,6.70
2023-04-16T03:21:57.561Z,6.57
2023-04-16T03:22:29.849Z,6.90
2023-04-16T03:23:02.373Z,6.63
2023-04-16T03:23:35.988Z,6.57
2023-04-16T03:24:08.243Z,6.85
2023-04-16T03:24:40.836Z,6.68
2023-04-16T03:25:13.216Z,7.38
2023-04-16T03:25:48.150Z,7.30
2023-04-16T03:26:23.431Z,7.78
2023-04-16T03:26:57.554Z,8.33
2023-04-16T03:27:29.904Z,7.85
2023-04-16T03:28:03.940Z,8.48
2023-04-16T03:28:36.621Z,8.05
2023-04-16T03:29:09.401Z,8.60
2023-04-16T03:29:41.893Z,8.60
2023-04-16T03:30:15.284Z,8.43
2023-04-16T03:30:52.937Z,7.90
2023-04-16T03:31:25.938Z,7.80
2023-04-16T03:31:59.252Z,8.13
2023-04-16T03:32:32.050Z,8.67
2023-04-16T03:33:04.511Z,8.15
2023-04-16T03:33:37.288Z,8.90
2023-04-16T03:34:10.264Z,8.32
2023-04-16T03:34:44.254Z,8.43
2023-04-16T03:35:16.719Z,8.63
2023-04-16T03:35:55.210Z,9.30
2023-04-16T03:36:28.144Z,9.52
2023-04-16T03:37:00.979Z,8.88
2023-04-16T03:37:33.718Z,8.77
2023-04-16T03:38:06.082Z,9.93
2023-04-16T03:38:38.590Z,9.32
2023-04-16T03:39:11.192Z,9.27
2023-04-16T03:39:43.781Z,9.57
2023-04-16T03:40:17.085Z,9.82
2023-04-16T03:40:49.352Z,8.93
2023-04-16T03:41:21.890Z,9.18
2023-04-16T03:41:54.324Z,9.80
2023-04-16T03:42:27.271Z,9.57
2023-04-16T03:42:59.590Z,9.82
2023-04-16T03:43:33.180Z,9.87
2023-04-16T03:44:05.691Z,9.48
2023-04-16T03:44:38.989Z,9.90
2023-04-16T03:45:11.768Z,10.10
2023-04-16T03:45:45.572Z,10.35
2023-04-16T03:46:18.389Z,9.48
2023-04-16T03:46:51.170Z,10.52
2023-04-16T03:47:23.634Z,9.52
2023-04-16T03:47:59.429Z,9.55
2023-04-16T03:48:31.962Z,9.60
2023-04-16T03:49:04.247Z,9.73
2023-04-16T03:49:36.626Z,10.13
2023-04-16T03:50:09.158Z,10.48
2023-04-16T03:50:45.147Z,10.32
2023-04-16T03:51:17.496Z,10.20
2023-04-16T03:51:49.910Z,9.77
2023-04-16T03:52:23.410Z,10.60
2023-04-16T03:52:55.771Z,10.68
2023-04-16T03:53:28.137Z,10.48
2023-04-16T03:54:00.494Z,10.32
2023-04-16T03:54:33.854Z,10.13
2023-04-16T03:55:25.437Z,10.30
2023-04-16T03:55:58.099Z,10.20
2023-04-16T03:56:30.753Z,9.70
2023-04-16T03:57:03.210Z,10.20
2023-04-16T03:57:35.527Z,10.55
2023-04-16T03:58:13.699Z,10.00
2023-04-16T03:58:45.974Z,9.93
2023-04-16T03:59:18.658Z,10.65
2023-04-16T03:59:50.987Z,10.07
2023-04-16T04:00:24.067Z,10.43
2023-04-16T04:01:05.250Z,10.50
2023-04-16T04:01:37.838Z,10.27
2023-04-16T04:02:10.554Z,10.00
2023-04-16T04:02:43.164Z,10.77
2023-04-16T04:03:22.767Z,11.45
2023-04-16T04:03:55.925Z,14.07
2023-04-16T04:04:28.460Z,12.70
2023-04-16T04:05:00.934Z,13.77
2023-04-16T04:05:37.765Z,13.48
2023-04-16T04:06:10.201Z,11.80
2023-04-16T04:06:42.967Z,10.80
2023-04-16T04:07:16.265Z,10.25
2023-04-16T04:07:48.668Z,10.35
2023-04-16T04:08:21.033Z,10.98
2023-04-16T04:08:53.765Z,10.75
2023-04-16T04:09:26.442Z,11.48
2023-04-16T04:09:58.863Z,11.00
2023-04-16T04:10:34.364Z,11.20
2023-04-16T04:11:07.890Z,10.05
2023-04-16T04:11:41.123Z,10.90
2023-04-16T04:12:14.213Z,11.25
2023-04-16T04:12:48.426Z,10.68
2023-04-16T04:13:20.953Z,10.93
2023-04-16T04:13:54.231Z,10.65
2023-04-16T04:14:26.506Z,11.18
2023-04-16T04:14:58.859Z,11.27
2023-04-16T04:15:32.684Z,11.85
2023-04-16T04:16:05.760Z,12.18
2023-04-16T04:16:38.212Z,11.63
2023-04-16T04:17:10.603Z,12.20
2023-04-16T04:17:43.067Z,11.85
2023-04-16T04:18:15.475Z,11.57
2023-04-16T04:18:49.112Z,11.02
2023-04-16T04:19:21.475Z,10.70
2023-04-16T04:20:01.331Z,10.50
2023-04-16T04:20:39.338Z,10.50
2023-04-16T04:21:11.832Z,10.35
2023-04-16T04:21:44.612Z,10.20
2023-04-16T04:22:16.858Z,10.52
2023-04-16T04:22:50.075Z,10.03
2023-04-16T04:23:23.096Z,9.95
2023-04-16T04:23:56.204Z,10.48
2023-04-16T04:24:28.830Z,9.80
2023-04-16T04:25:01.517Z,10.30
2023-04-16T04:25:36.191Z,9.93
2023-04-16T04:26:08.694Z,10.07
2023-04-16T04:26:41.082Z,10.13
2023-04-16T04:27:13.494Z,9.85
2023-04-16T04:27:46.227Z,9.70
2023-04-16T04:28:18.562Z,9.43
2023-04-16T04:28:51.113Z,9.30
2023-04-16T04:29:24.172Z,10.23
2023-04-16T04:29:56.832Z,9.77
2023-04-16T04:30:29.876Z,10.50
2023-04-16T04:31:02.231Z,10.40
2023-04-16T04:31:36.466Z,9.77
2023-04-16T04:32:08.826Z,10.38
2023-04-16T04:32:41.553Z,10.00
2023-04-16T04:33:14.496Z,9.25
2023-04-16T04:33:47.653Z,10.00
2023-04-16T04:34:19.908Z,10.27
2023-04-16T04:34:52.621Z,10.55
2023-04-16T04:35:25.726Z,10.50
2023-04-16T04:35:58.632Z,10.05
2023-04-16T04:36:31.438Z,8.85
2023-04-16T04:37:04.046Z,10.27
2023-04-16T04:37:36.384Z,10.10
2023-04-16T04:38:22.194Z,9.65
2023-04-16T04:38:55.717Z,9.90
2023-04-16T04:39:28.319Z,10.97
2023-04-16T04:40:00.892Z,10.15
2023-04-16T04:40:33.174Z,10.40
2023-04-16T04:41:06.319Z,10.95
2023-04-16T04:41:41.592Z,10.63
2023-04-16T04:42:13.945Z,9.63
2023-04-16T04:42:46.483Z,11.55
2023-04-16T04:43:21.885Z,11.57
2023-04-16T04:43:56.015Z,12.10
2023-04-16T04:44:28.362Z,12.45
2023-04-16T04:45:00.806Z,11.30
2023-04-16T04:45:35.980Z,11.73
2023-04-16T04:46:10.286Z,11.70
2023-04-16T04:46:42.685Z,10.68
2023-04-16T04:47:15.350Z,10.30
2023-04-16T04:47:47.836Z,11.52
2023-04-16T04:48:26.381Z,11.43
2023-04-16T04:48:58.826Z,10.15
2023-04-16T04:49:31.620Z,10.27
2023-04-16T04:50:04.132Z,10.45
2023-04-16T04:50:38.052Z,10.73
2023-04-16T04:51:10.494Z,10.27
2023-04-16T04:51:42.888Z,10.68
2023-04-16T04:52:15.263Z,10.68
2023-04-16T04:52:48.139Z,10.38
2023-04-16T04:53:20.834Z,10.70
2023-04-16T04:53:53.535Z,10.70
2023-04-16T04:54:26.651Z,11.63
2023-04-16T04:54:59.411Z,10.43
2023-04-16T04:55:31.876Z,10.57
2023-04-16T04:56:12.172Z,10.60
2023-04-16T04:56:46.749Z,9.80
2023-04-16T04:57:19.701Z,10.00
2023-04-16T04:57:52.210Z,10.43
2023-04-16T04:58:25.788Z,10.38
2023-04-16T04:58:58.309Z,10.05
2023-04-16T04:59:30.914Z,10.30
2023-04-16T05:00:04.485Z,9.90
2023-04-16T05:00:46.419Z,9.82
2023-04-16T05:01:18.811Z,10.02
2023-04-16T05:01:51.548Z,9.80
2023-04-16T05:02:23.981Z,9.85
2023-04-16T05:02:56.398Z,9.68
2023-04-16T05:03:28.845Z,9.73
2023-04-16T05:04:01.488Z,9.27
2023-04-16T05:04:33.928Z,8.70
2023-04-16T05:05:06.515Z,9.60
2023-04-16T05:05:41.642Z,9.77
2023-04-16T05:06:13.984Z,10.43
2023-04-16T05:06:46.439Z,9.40
2023-04-16T05:07:18.704Z,9.60
2023-04-16T05:07:51.121Z,9.73
2023-04-16T05:08:23.478Z,9.38
2023-04-16T05:08:55.812Z,9.77
2023-04-16T05:09:28.158Z,9.18
2023-04-16T05:10:00.895Z,9.30
2023-04-16T05:10:33.165Z,9.15
2023-04-16T05:11:05.803Z,8.75
2023-04-16T05:11:38.677Z,9.02
2023-04-16T05:12:10.942Z,9.02
2023-04-16T05:12:43.367Z,8.83
2023-04-16T05:13:17.202Z,8.60
2023-04-16T05:13:49.475Z,8.20
2023-04-16T05:14:21.771Z,8.85
2023-04-16T05:14:54.073Z,8.43
2023-04-16T05:15:26.512Z,8.63
2023-04-16T05:15:58.862Z,8.70
2023-04-16T05:16:31.179Z,8.80
2023-04-16T05:17:03.680Z,8.80
2023-04-16T05:17:36.265Z,8.38
2023-04-16T05:18:08.782Z,7.90
2023-04-16T05:18:41.622Z,8.50
2023-04-16T05:19:13.876Z,8.68
2023-04-16T05:19:46.278Z,8.32
2023-04-16T05:20:18.717Z,8.45
2023-04-16T05:20:51.462Z,8.30
2023-04-16T05:21:24.182Z,9.50
2023-04-16T05:21:56.509Z,8.52
2023-04-16T05:22:28.816Z,9.20
2023-04-16T05:23:01.090Z,7.75
2023-04-16T05:23:33.454Z,8.70
2023-04-16T05:24:06.433Z,7.85
2023-04-16T05:24:38.811Z,7.75
2023-04-16T05:25:11.353Z,8.07
2023-04-16T05:25:43.636Z,8.07
2023-04-16T05:26:16.136Z,7.40
2023-04-16T05:26:48.396Z,7.90
2023-04-16T05:27:20.710Z,6.90
2023-04-16T05:27:53.134Z,8.60
2023-04-16T05:28:25.477Z,6.85
2023-04-16T05:28:57.924Z,7.50
2023-04-16T05:29:30.406Z,6.97
2023-04-16T05:30:03.343Z,6.97
2023-04-16T05:30:35.831Z,7.47
2023-04-16T05:31:08.197Z,7.43
2023-04-16T05:31:41.210Z,7.00
2023-04-16T05:32:13.701Z,7.20
2023-04-16T05:32:46.059Z,6.40
2023-04-16T05:33:18.428Z,7.40
2023-04-16T05:33:50.841Z,6.78
2023-04-16T05:34:23.299Z,7.67
2023-04-16T05:34:55.778Z,6.70
2023-04-16T05:35:28.119Z,6.93
2023-04-16T05:36:00.612Z,6.85
2023-04-16T05:36:32.880Z,6.90
2023-04-16T05:37:05.223Z,6.95
2023-04-16T05:37:37.553Z,7.28
2023-04-16T05:38:10.493Z,6.57
2023-04-16T05:38:42.787Z,7.10
2023-04-16T05:39:16.911Z,7.00
2023-04-16T05:39:49.258Z,7.53
2023-04-16T05:40:21.595Z,6.97
2023-04-16T05:40:53.843Z,7.25
2023-04-16T05:41:26.316Z,7.40
2023-04-16T05:41:58.769Z,7.60
2023-04-16T05:42:31.424Z,7.20
2023-04-16T05:43:03.702Z,7.15
2023-04-16T05:43:36.138Z,7.55
2023-04-16T05:44:08.840Z,7.80
2023-04-16T05:44:41.378Z,8.02
2023-04-16T05:45:14.267Z,7.07
2023-04-16T05:45:46.788Z,7.05
2023-04-16T05:46:19.227Z,8.07
2023-04-16T05:46:52.888Z,7.35
2023-04-16T05:47:33.470Z,8.18
2023-04-16T05:48:13.111Z,6.95
2023-04-16T05:48:53.649Z,7.13
2023-04-16T05:49:32.817Z,6.60
2023-04-16T05:50:13.719Z,7.25
2023-04-16T05:50:53.108Z,7.35
2023-04-16T05:51:32.287Z,7.47
2023-04-16T05:52:14.468Z,7.00
2023-04-16T05:52:51.705Z,7.80
2023-04-16T05:53:28.539Z,7.60
2023-04-16T05:54:06.297Z,7.88
2023-04-16T05:54:42.128Z,7.55
2023-04-16T05:55:17.719Z,8.05
2023-04-16T05:55:53.574Z,7.43
2023-04-16T05:56:30.816Z,8.13
2023-04-16T05:57:07.866Z,6.78
2023-04-16T05:57:42.784Z,7.70
2023-04-16T05:58:26.344Z,7.53
2023-04-16T05:59:06.181Z,7.88
2023-04-16T05:59:43.264Z,7.20
2023-04-16T06:00:22.620Z,7.63
2023-04-16T06:00:58.730Z,7.45
2023-04-16T06:01:34.663Z,7.63
2023-04-16T06:02:14.479Z,7.03
2023-04-16T06:02:58.623Z,6.82
2023-04-16T06:03:54.392Z,7.03
2023-04-16T06:05:09.261Z,7.70
2023-04-16T06:06:24.451Z,6.97
2023-04-16T06:07:03.429Z,7.30
2023-04-16T06:07:40.440Z,7.88
2023-04-16T06:08:18.182Z,7.45
2023-04-16T06:08:54.295Z,7.40
2023-04-16T06:09:34.494Z,7.75
2023-04-16T06:10:13.108Z,9.00
2023-04-16T06:10:48.502Z,8.85
2023-04-16T06:11:25.020Z,8.32
2023-04-16T06:12:02.646Z,7.93
2023-04-16T06:12:40.413Z,8.38
2023-04-16T06:13:16.831Z,8.60
2023-04-16T06:13:53.295Z,8.38
2023-04-16T06:14:33.586Z,7.97
2023-04-16T06:15:11.202Z,7.50
2023-04-16T06:15:48.292Z,7.13
2023-04-16T06:16:25.246Z,8.27
2023-04-16T06:17:02.700Z,8.38
2023-04-16T06:17:41.518Z,7.88
2023-04-16T06:18:22.415Z,8.20
2023-04-16T06:18:59.288Z,7.40
2023-04-16T06:19:41.811Z,7.80
2023-04-16T06:20:22.123Z,7.88
2023-04-16T06:20:58.620Z,7.95
2023-04-16T06:21:35.307Z,7.95
2023-04-16T06:22:13.249Z,7.90
2023-04-16T06:22:51.389Z,7.50
2023-04-16T06:23:33.825Z,7.85
2023-04-16T06:24:12.745Z,7.63
2023-04-16T06:24:50.353Z,7.83
2023-04-16T06:25:31.020Z,7.60
2023-04-16T06:26:09.696Z,8.95
2023-04-16T06:26:50.835Z,8.00
2023-04-16T06:27:31.898Z,8.38
2023-04-16T06:28:10.017Z,7.50
2023-04-16T06:28:51.181Z,8.15
2023-04-16T06:29:40.371Z,7.57
2023-04-16T06:30:23.963Z,7.50
2023-04-16T06:31:06.520Z,7.20
2023-04-16T06:31:52.449Z,7.50
2023-04-16T06:32:29.891Z,7.13
2023-04-16T06:33:10.076Z,8.18
2023-04-16T06:33:52.248Z,7.57
2023-04-16T06:34:38.455Z,7.65
2023-04-16T06:35:16.308Z,6.60
2023-04-16T06:35:53.555Z,7.00
2023-04-16T06:36:31.299Z,6.65
2023-04-16T06:37:12.956Z,7.20
2023-04-16T06:37:54.042Z,6.47
2023-04-16T06:38:30.225Z,7.30
2023-04-16T06:39:10.344Z,6.93
2023-04-16T06:39:48.419Z,6.78
2023-04-16T06:40:25.891Z,6.95
2023-04-16T06:41:02.686Z,6.55
2023-04-16T06:41:43.724Z,6.03
2023-04-16T06:42:26.136Z,6.95
2023-04-16T06:43:03.112Z,6.28
2023-04-16T06:43:40.670Z,6.82
2023-04-16T06:44:16.845Z,6.63
2023-04-16T06:44:53.460Z,6.57
2023-04-16T06:45:34.068Z,6.70
2023-04-16T06:46:12.821Z,6.90
2023-04-16T06:46:52.470Z,5.97
2023-04-16T06:47:32.248Z,6.47
2023-04-16T06:48:07.104Z,6.05
2023-04-16T06:48:43.430Z,6.28
2023-04-16T06:49:16.750Z,5.68
2023-04-16T06:49:53.145Z,6.03
2023-04-16T06:50:28.998Z,6.07
2023-04-16T06:51:02.042Z,7.47
2023-04-16T06:51:34.780Z,7.03
2023-04-16T06:52:07.284Z,6.63
2023-04-16T06:52:39.728Z,6.00
2023-04-16T06:53:12.064Z,6.15
2023-04-16T06:53:44.467Z,6.45
2023-04-16T06:54:17.135Z,6.07
2023-04-16T06:54:49.582Z,5.78
2023-04-16T06:55:22.006Z,5.93
2023-04-16T06:55:54.437Z,5.93
2023-04-16T06:56:26.736Z,6.50
2023-04-16T06:56:59.036Z,5.72
2023-04-16T06:57:31.463Z,5.90
2023-04-16T06:58:04.032Z,5.82
2023-04-16T06:58:36.551Z,5.43
2023-04-16T06:59:08.970Z,4.72
2023-04-16T06:59:41.550Z,5.30
2023-04-16T07:00:13.871Z,5.28
2023-04-16T07:00:46.374Z,5.68
2023-04-16T07:01:18.967Z,5.10
2023-04-16T07:01:52.276Z,5.30
2023-04-16T07:02:24.888Z,5.30
2023-04-16T07:02:58.568Z,5.43
2023-04-16T07:03:31.674Z,5.35
2023-04-16T07:04:04.588Z,5.40
2023-04-16T07:04:36.978Z,3.97
2023-04-16T07:05:09.339Z,5.32
2023-04-16T07:05:41.708Z,3.85
2023-04-16T07:06:14.207Z,4.13
2023-04-16T07:06:46.494Z,4.10
2023-04-16T07:07:19.183Z,4.37
2023-04-16T07:07:51.478Z,4.13
2023-04-16T07:08:23.774Z,4.30
2023-04-16T07:08:56.224Z,4.30
2023-04-16T07:09:28.509Z,4.18
2023-04-16T07:10:00.981Z,4.07
2023-04-16T07:10:33.382Z,4.10
2023-04-16T07:11:05.745Z,4.40
2023-04-16T07:11:38.070Z,4.38
2023-04-16T07:12:11.596Z,4.18
2023-04-16T07:12:44.081Z,4.93
2023-04-16T07:13:16.636Z,4.70
2023-04-16T07:13:49.278Z,5.28
2023-04-16T07:14:21.696Z,4.55
2023-04-16T07:14:53.954Z,4.63
2023-04-16T07:15:26.204Z,4.28
2023-04-16T07:15:58.513Z,4.45
2023-04-16T07:16:30.991Z,4.47
2023-04-16T07:17:03.320Z,4.18
2023-04-16T07:17:35.753Z,4.55
2023-04-16T07:18:08.100Z,4.87
2023-04-16T07:18:40.557Z,4.78
2023-04-16T07:19:12.867Z,4.80
2023-04-16T07:19:45.331Z,4.68
2023-04-16T07:20:17.658Z,4.43
2023-04-16T07:20:49.961Z,4.28
2023-04-16T07:21:22.544Z,3.85
2023-04-16T07:21:54.822Z,4.13
2023-04-16T07:22:27.158Z,4.03
2023-04-16T07:22:59.657Z,4.32
2023-04-16T07:23:32.028Z,4.67
2023-04-16T07:24:04.390Z,4.97
2023-04-16T07:24:38.426Z,4.53
2023-04-16T07:25:10.847Z,4.78
2023-04-16T07:25:43.159Z,5.25
2023-04-16T07:26:15.656Z,4.80
2023-04-16T07:26:47.954Z,4.63
2023-04-16T07:27:20.697Z,4.13
2023-04-16T07:27:53.012Z,4.53
2023-04-16T07:28:26.000Z,4.10